This is the latest recevied weather packets stored in our database for station/object HS5NMF. If no packets are shown the sender has not sent any weather packets the latest 10 day(s).
| Time | Temp. | Humidity | Pressure | Rain* | Wind** | Luminosity | Snow |
|---|---|---|---|---|---|---|---|
| 1777637316 | 27.78° C | 87% | 976 hPa | - | - | 0 W/m² | - |
| 1777636991 | 28.33° C | 82% | 976 hPa | - | - | 0 W/m² | - |
| 1777636669 | 28.33° C | 82% | 976 hPa | - | - | 0 W/m² | - |
| 1777636347 | 28.33° C | 78% | 976 hPa | - | - | 0 W/m² | - |
| 1777636022 | 29.44° C | 70% | 976 hPa | - | - | 0 W/m² | - |
| 1777635700 | 29.44° C | 69% | 976 hPa | - | - | 0 W/m² | - |
| 1777635373 | 28.89° C | 70% | 976 hPa | - | - | 0 W/m² | - |
| 1777635050 | 28.89° C | 71% | 976 hPa | - | - | 0 W/m² | - |
| 1777634727 | 28.89° C | 73% | 976 hPa | - | - | 0 W/m² | - |
| 1777634402 | 29.44° C | 70% | 976 hPa | - | - | 0 W/m² | - |
| 1777634080 | 29.44° C | 72% | 976 hPa | - | - | 0 W/m² | - |
| 1777633757 | 28.89° C | 76% | 976 hPa | - | - | 0 W/m² | - |
| 1777633417 | 29.44° C | 73% | 976 hPa | - | - | 0 W/m² | - |
| 1777633096 | 28.33° C | 78% | 976 hPa | - | - | 0 W/m² | - |
| 1777632756 | 28.33° C | 76% | 976 hPa | - | - | 0 W/m² | - |
| 1777632417 | 28.89° C | 74% | 976 hPa | - | - | 0 W/m² | - |
| 1777632075 | 28.89° C | 74% | 976 hPa | - | - | 0 W/m² | - |
| 1777632031 | 28.89° C | 74% | 976 hPa | - | - | 0 W/m² | - |
| 1777631706 | 29.44° C | 72% | 976 hPa | - | - | 0 W/m² | - |
| 1777631380 | 29.44° C | 72% | 976 hPa | - | - | 0 W/m² | - |
| 1777631054 | 29.44° C | 71% | 976 hPa | - | - | 0 W/m² | - |
| 1777630729 | 29.44° C | 71% | 976 hPa | - | - | 0 W/m² | - |
| 1777630402 | 29.44° C | 71% | 976 hPa | - | - | 0 W/m² | - |
| 1777630074 | 29.44° C | 73% | 976 hPa | - | - | 0 W/m² | - |
| 1777629744 | 28.89° C | 73% | 976 hPa | - | - | 0 W/m² | - |
* Rain since midnight (hover to see other rain measurements)
** Current wind speed in m/s (hover to see current wind gust speed)